createdAt,value
2019-05-11T00:00:40.686Z,72.09
2019-05-11T00:05:00.997Z,71.80
2019-05-11T00:09:21.143Z,72.12
2019-05-11T00:13:41.692Z,71.39
2019-05-11T00:18:02.468Z,71.39
2019-05-11T00:22:23.483Z,72.25
2019-05-11T00:26:44.295Z,72.87
2019-05-11T00:31:04.954Z,72.95
2019-05-11T00:35:25.613Z,74.20
2019-05-11T00:39:46.343Z,75.37
2019-05-11T00:44:06.570Z,75.33
2019-05-11T00:48:27.301Z,75.96
2019-05-11T00:52:48.293Z,76.53
2019-05-11T00:57:09.090Z,76.48
2019-05-11T01:01:29.641Z,75.88
2019-05-11T01:05:50.014Z,75.88
2019-05-11T01:10:23.063Z,76.38
2019-05-11T01:14:33.336Z,76.55
2019-05-11T01:18:53.745Z,76.55
2019-05-11T01:23:14.780Z,77.59
2019-05-11T01:27:35.349Z,77.78
2019-05-11T01:31:56.178Z,77.79
2019-05-11T01:36:16.974Z,77.86
2019-05-11T01:40:37.778Z,77.59
2019-05-11T01:44:57.995Z,77.87
2019-05-11T01:49:18.952Z,77.24
2019-05-11T01:53:39.330Z,77.53
2019-05-11T01:57:59.886Z,77.53
2019-05-11T02:02:20.543Z,77.68
2019-05-11T02:06:41.371Z,77.42
2019-05-11T02:11:14.978Z,77.42
2019-05-11T02:15:24.461Z,77.61
2019-05-11T02:19:45.310Z,77.76
2019-05-11T02:24:05.805Z,77.91
2019-05-11T02:28:26.755Z,78.85
2019-05-11T02:32:47.646Z,79.50
2019-05-11T02:37:08.246Z,79.50
2019-05-11T02:41:36.183Z,79.08
2019-05-11T02:45:51.280Z,80.09
2019-05-11T02:50:11.944Z,79.77
2019-05-11T02:54:32.747Z,79.77
2019-05-11T02:58:52.984Z,79.73
2019-05-11T03:03:14.040Z,79.85
2019-05-11T03:07:34.680Z,79.54
2019-05-11T03:11:56.546Z,79.40
2019-05-11T03:16:17.027Z,79.57
2019-05-11T03:20:37.916Z,79.61
2019-05-11T03:25:02.878Z,79.85
2019-05-11T03:29:23.513Z,79.57
2019-05-11T03:33:44.228Z,79.29
2019-05-11T03:38:05.386Z,78.96
2019-05-11T03:42:25.705Z,78.96
2019-05-11T03:46:46.830Z,78.18
2019-05-11T03:51:08.280Z,79.17
2019-05-11T03:55:29.073Z,77.89
2019-05-11T03:59:49.382Z,77.89
2019-05-11T04:04:10.490Z,78.71
2019-05-11T04:08:30.810Z,78.94
2019-05-11T04:12:51.914Z,78.66
2019-05-11T04:17:12.881Z,78.95
2019-05-11T04:21:33.378Z,78.24
2019-05-11T04:25:54.117Z,77.67
2019-05-11T04:30:14.904Z,77.74
2019-05-11T04:34:35.340Z,79.21
2019-05-11T04:38:55.380Z,78.12
2019-05-11T04:43:15.528Z,78.37
2019-05-11T04:47:36.569Z,78.76
2019-05-11T04:51:57.264Z,79.09
2019-05-11T04:56:18.023Z,78.91
2019-05-11T05:00:38.794Z,78.33
2019-05-11T05:04:58.923Z,78.48
2019-05-11T05:09:20.303Z,78.30
2019-05-11T05:13:45.738Z,78.84
2019-05-11T05:18:06.769Z,79.01
2019-05-11T05:22:28.053Z,78.20
2019-05-11T05:26:48.997Z,78.98
2019-05-11T05:31:10.054Z,78.49
2019-05-11T05:35:30.852Z,78.51
2019-05-11T05:39:51.625Z,78.52
2019-05-11T05:44:12.417Z,77.57
2019-05-11T05:48:32.640Z,78.73
2019-05-11T05:52:53.157Z,77.06
2019-05-11T05:57:13.680Z,78.19
2019-05-11T06:01:34.383Z,78.73
2019-05-11T06:05:54.903Z,77.15
2019-05-11T06:10:15.624Z,77.15
2019-05-11T06:14:36.068Z,77.69
2019-05-11T06:18:56.743Z,77.69
2019-05-11T06:23:17.315Z,76.90
2019-05-11T06:27:37.634Z,77.80
2019-05-11T06:31:59.589Z,77.80
2019-05-11T06:36:20.561Z,76.76
2019-05-11T06:40:41.135Z,77.58
2019-05-11T06:45:01.831Z,76.72
2019-05-11T06:49:22.368Z,77.84
2019-05-11T06:53:42.860Z,76.65
2019-05-11T06:58:03.016Z,77.07
2019-05-11T07:02:23.133Z,77.07
2019-05-11T07:06:43.902Z,77.79
2019-05-11T07:11:04.240Z,77.29
2019-05-11T07:15:24.718Z,77.50
2019-05-11T07:19:49.306Z,77.60
2019-05-11T07:24:10.307Z,76.29
2019-05-11T07:28:31.008Z,76.82
2019-05-11T07:32:51.103Z,77.08
2019-05-11T07:37:12.017Z,76.02
2019-05-11T07:41:32.167Z,77.05
2019-05-11T07:45:52.869Z,76.60
2019-05-11T07:50:14.124Z,77.41
2019-05-11T07:54:34.852Z,77.27
2019-05-11T07:58:57.873Z,77.27
2019-05-11T08:03:18.827Z,77.68
2019-05-11T08:07:39.219Z,77.68
2019-05-11T08:11:59.685Z,76.90
2019-05-11T08:16:20.208Z,77.85
2019-05-11T08:20:41.245Z,77.52
2019-05-11T08:25:01.871Z,78.75
2019-05-11T08:29:23.188Z,78.58
2019-05-11T08:33:44.430Z,78.78
2019-05-11T08:38:06.054Z,78.86
2019-05-11T08:42:28.918Z,78.86
2019-05-11T08:46:49.983Z,77.88
2019-05-11T08:51:10.619Z,77.88
2019-05-11T08:55:31.284Z,77.36
2019-05-11T08:59:52.082Z,78.20
2019-05-11T09:04:12.275Z,77.82
2019-05-11T09:08:32.946Z,78.54
2019-05-11T09:12:53.114Z,77.18
2019-05-11T09:17:13.738Z,75.72
2019-05-11T09:21:34.387Z,75.35
2019-05-11T09:25:58.173Z,75.35
2019-05-11T09:30:18.646Z,76.02
2019-05-11T09:34:40.074Z,77.05
2019-05-11T09:39:00.945Z,75.34
2019-05-11T09:43:22.877Z,75.70
2019-05-11T09:47:43.138Z,75.70
2019-05-11T09:52:04.492Z,74.90
2019-05-11T09:56:25.610Z,73.48
2019-05-11T10:00:47.935Z,74.56
2019-05-11T10:05:08.655Z,73.55
2019-05-11T10:09:29.098Z,71.45
2019-05-11T10:13:49.956Z,72.30
2019-05-11T10:18:10.340Z,71.87
2019-05-11T10:22:31.865Z,71.48
2019-05-11T10:26:52.408Z,72.91
2019-05-11T10:31:13.341Z,72.60
2019-05-11T10:35:34.516Z,69.27
2019-05-11T10:39:57.654Z,67.81
2019-05-11T10:44:18.793Z,70.83
2019-05-11T10:48:39.549Z,69.00
2019-05-11T10:53:00.213Z,70.48
2019-05-11T10:57:20.562Z,70.00
2019-05-11T11:01:41.136Z,69.28
2019-05-11T11:06:01.800Z,69.63
2019-05-11T11:10:22.427Z,70.28
2019-05-11T11:14:43.113Z,67.75
2019-05-11T11:19:04.761Z,68.29
2019-05-11T11:23:25.500Z,68.15
2019-05-11T11:27:48.415Z,68.02
2019-05-11T11:32:08.807Z,65.76
2019-05-11T11:36:29.516Z,67.66
2019-05-11T11:40:50.844Z,65.91
2019-05-11T11:45:12.756Z,64.78
2019-05-11T11:49:33.632Z,63.52
2019-05-11T11:53:54.583Z,66.62
2019-05-11T11:58:15.377Z,63.58
2019-05-11T12:02:38.590Z,61.83
2019-05-11T12:06:58.853Z,63.39
2019-05-11T12:11:20.178Z,61.55
2019-05-11T12:15:40.644Z,62.36
2019-05-11T12:20:01.255Z,62.13
2019-05-11T12:24:21.729Z,63.67
2019-05-11T12:28:42.216Z,60.26
2019-05-11T12:33:02.577Z,59.02
2019-05-11T12:37:23.420Z,58.21
2019-05-11T12:41:43.969Z,54.91
2019-05-11T12:46:04.204Z,57.23
2019-05-11T12:50:25.099Z,57.43
2019-05-11T12:54:45.190Z,58.47
2019-05-11T12:59:08.014Z,57.71
2019-05-11T13:03:28.198Z,56.70
2019-05-11T13:07:48.578Z,56.90
2019-05-11T13:12:11.750Z,58.93
2019-05-11T13:16:32.600Z,60.17
2019-05-11T13:20:53.289Z,61.14
2019-05-11T13:25:15.083Z,59.54
2019-05-11T13:29:37.777Z,63.64
2019-05-11T13:33:58.655Z,62.08
2019-05-11T13:38:19.774Z,60.26
2019-05-11T13:42:41.408Z,60.31
2019-05-11T13:47:13.433Z,60.06
2019-05-11T13:51:34.129Z,61.12
2019-05-11T13:55:55.074Z,59.87
2019-05-11T14:00:17.599Z,59.38
2019-05-11T14:04:38.658Z,59.53
2019-05-11T14:08:59.767Z,57.83
2019-05-11T14:13:19.951Z,57.00
2019-05-11T14:17:40.418Z,57.64
2019-05-11T14:22:01.252Z,55.58
2019-05-11T14:26:24.532Z,55.88
2019-05-11T14:30:45.373Z,55.98
2019-05-11T14:35:11.333Z,57.18
2019-05-11T14:39:28.373Z,55.23
2019-05-11T14:43:49.131Z,55.28
2019-05-11T14:48:22.930Z,53.83
2019-05-11T14:52:39.189Z,52.20
2019-05-11T14:56:59.821Z,50.53
2019-05-11T15:01:20.317Z,52.20
2019-05-11T15:05:41.616Z,49.43
2019-05-11T15:10:02.507Z,50.83
2019-05-11T15:14:23.224Z,47.85
2019-05-11T15:18:43.573Z,47.89
2019-05-11T15:23:04.123Z,50.08
2019-05-11T15:27:24.931Z,50.42
2019-05-11T15:31:45.827Z,51.17
2019-05-11T15:36:07.619Z,52.12
2019-05-11T15:40:28.534Z,50.93
2019-05-11T15:44:49.114Z,51.88
2019-05-11T15:49:09.575Z,51.17
2019-05-11T15:53:30.254Z,51.53
2019-05-11T15:57:52.119Z,50.83
2019-05-11T16:02:12.596Z,50.61
2019-05-11T16:06:36.035Z,50.26
2019-05-11T16:10:57.858Z,50.29
2019-05-11T16:15:19.409Z,51.17
2019-05-11T16:19:41.092Z,52.02
2019-05-11T16:24:02.389Z,51.83
2019-05-11T16:28:23.576Z,52.61
2019-05-11T16:32:44.335Z,51.98
2019-05-11T16:37:05.544Z,51.43
2019-05-11T16:41:29.194Z,52.07
2019-05-11T16:45:51.111Z,52.47
2019-05-11T16:50:12.312Z,52.46
2019-05-11T16:54:32.780Z,53.34
2019-05-11T16:58:54.865Z,53.34
2019-05-11T17:03:16.295Z,49.71
2019-05-11T17:07:37.673Z,49.46
2019-05-11T17:11:58.389Z,45.70
2019-05-11T17:16:19.510Z,46.77
2019-05-11T17:20:40.158Z,48.69
2019-05-11T17:25:00.439Z,49.51
2019-05-11T17:29:21.924Z,49.90
2019-05-11T17:33:42.644Z,51.75
2019-05-11T17:38:03.238Z,52.67
2019-05-11T17:42:23.569Z,52.19
2019-05-11T17:46:44.403Z,49.42
2019-05-11T17:55:19.008Z,49.84
2019-05-11T17:59:40.417Z,51.22
2019-05-11T18:04:01.377Z,51.87
2019-05-11T18:08:22.432Z,51.25
2019-05-11T18:12:42.932Z,52.58
2019-05-11T18:17:04.200Z,53.42
2019-05-11T18:21:24.452Z,54.61
2019-05-11T18:25:48.032Z,55.44
2019-05-11T18:30:09.048Z,54.62
2019-05-11T18:34:30.043Z,53.79
2019-05-11T18:38:51.218Z,54.96
2019-05-11T18:43:11.827Z,55.51
2019-05-11T18:47:31.976Z,55.82
2019-05-11T18:51:52.533Z,55.64
2019-05-11T18:56:13.282Z,58.28
2019-05-11T19:00:34.983Z,59.45
2019-05-11T19:04:58.032Z,60.07
2019-05-11T19:09:18.554Z,61.14
2019-05-11T19:13:39.278Z,61.36
2019-05-11T19:17:59.803Z,60.28
2019-05-11T19:22:21.277Z,61.55
2019-05-11T19:26:42.935Z,60.26
2019-05-11T19:31:03.840Z,59.44
2019-05-11T19:35:28.104Z,58.84
2019-05-11T19:39:50.792Z,56.64
2019-05-11T19:44:12.014Z,54.83
2019-05-11T19:48:32.294Z,53.57
2019-05-11T19:52:53.332Z,52.59
2019-05-11T19:57:14.296Z,51.83
2019-05-11T20:01:35.187Z,51.31
2019-05-11T20:05:58.071Z,51.36
2019-05-11T20:10:19.293Z,52.07
2019-05-11T20:14:40.069Z,52.07
2019-05-11T20:19:00.837Z,51.48
2019-05-11T20:23:21.724Z,51.48
2019-05-11T20:27:42.547Z,52.06
2019-05-11T20:32:03.722Z,52.71
2019-05-11T20:36:26.466Z,51.89
2019-05-11T20:40:48.419Z,52.92
2019-05-11T20:45:10.563Z,52.27
2019-05-11T20:49:31.104Z,52.41
2019-05-11T20:53:51.651Z,52.46
2019-05-11T20:58:13.179Z,51.77
2019-05-11T21:02:34.438Z,52.25
2019-05-11T21:06:54.763Z,52.25
2019-05-11T21:11:17.920Z,52.54
2019-05-11T21:15:38.696Z,53.14
2019-05-11T21:20:00.500Z,52.89
2019-05-11T21:24:21.963Z,53.24
2019-05-11T21:28:42.675Z,52.20
2019-05-11T21:33:04.780Z,52.93
2019-05-11T21:37:27.633Z,53.69
2019-05-11T21:41:48.190Z,53.80
2019-05-11T21:46:08.980Z,53.63
2019-05-11T21:50:29.813Z,53.85
2019-05-11T21:54:50.052Z,54.22
2019-05-11T21:59:10.649Z,55.15
2019-05-11T22:03:30.957Z,55.06
2019-05-11T22:07:52.342Z,55.54
2019-05-11T22:12:13.391Z,55.37
2019-05-11T22:16:33.656Z,56.48
2019-05-11T22:20:54.309Z,55.88
2019-05-11T22:25:15.338Z,56.30
2019-05-11T22:29:37.886Z,56.30
2019-05-11T22:33:58.433Z,57.06
2019-05-11T22:38:20.056Z,57.62
2019-05-11T22:42:40.800Z,57.36
2019-05-11T22:47:01.781Z,57.92
2019-05-11T22:51:23.909Z,58.40
2019-05-11T22:55:44.519Z,58.34
2019-05-11T23:00:08.005Z,57.39
2019-05-11T23:04:28.779Z,58.68
2019-05-11T23:08:53.871Z,58.97
2019-05-11T23:13:11.759Z,58.30
2019-05-11T23:17:32.847Z,58.95
2019-05-11T23:21:53.476Z,59.55
2019-05-11T23:26:13.806Z,60.26
2019-05-11T23:30:35.266Z,59.37
2019-05-11T23:34:55.885Z,60.07
2019-05-11T23:39:17.859Z,60.57
2019-05-11T23:43:38.718Z,60.95
2019-05-11T23:47:59.228Z,60.33
2019-05-11T23:52:20.382Z,61.04
2019-05-11T23:56:40.876Z,61.49
